createdAt,value
2019-01-27T00:01:07.699Z,89.77
2019-01-27T00:03:38.029Z,83.27
2019-01-27T00:06:08.280Z,82.90
2019-01-27T00:08:38.477Z,79.77
2019-01-27T00:11:08.727Z,82.80
2019-01-27T00:13:38.889Z,83.77
2019-01-27T00:16:09.268Z,90.43
2019-01-27T00:18:39.359Z,90.70
2019-01-27T00:21:09.610Z,91.40
2019-01-27T00:23:39.878Z,90.20
2019-01-27T00:26:10.231Z,92.63
2019-01-27T00:28:40.579Z,113.07
2019-01-27T00:31:10.862Z,113.97
2019-01-27T00:33:41.009Z,111.80
2019-01-27T00:36:11.170Z,102.37
2019-01-27T00:38:41.339Z,97.23
2019-01-27T00:41:11.560Z,92.33
2019-01-27T00:43:41.882Z,90.97
2019-01-27T00:46:12.067Z,90.23
2019-01-27T00:48:42.178Z,91.17
2019-01-27T00:51:12.342Z,88.97
2019-01-27T00:53:42.478Z,89.93
2019-01-27T00:56:12.548Z,83.23
2019-01-27T00:58:42.761Z,80.07
2019-01-27T01:01:12.928Z,80.63
2019-01-27T01:03:43.138Z,83.30
2019-01-27T01:06:13.337Z,84.27
2019-01-27T01:08:43.543Z,87.10
2019-01-27T01:11:13.698Z,85.93
2019-01-27T01:13:43.952Z,85.93
2019-01-27T01:16:14.097Z,88.33
2019-01-27T01:18:44.310Z,85.73
2019-01-27T01:21:14.657Z,85.57
2019-01-27T01:23:44.811Z,87.20
2019-01-27T01:26:15.084Z,94.47
2019-01-27T01:28:45.182Z,93.77
2019-01-27T01:31:16.434Z,86.50
2019-01-27T01:33:46.562Z,82.03
2019-01-27T01:36:16.686Z,81.07
2019-01-27T01:38:46.850Z,83.10
2019-01-27T01:41:17.023Z,80.87
2019-01-27T01:43:47.089Z,79.13
2019-01-27T01:46:17.378Z,83.00
2019-01-27T01:48:47.583Z,81.30
2019-01-27T01:51:17.965Z,83.20
2019-01-27T01:53:48.211Z,86.20
2019-01-27T01:56:18.425Z,89.07
2019-01-27T01:58:48.574Z,85.80
2019-01-27T02:01:18.923Z,88.20
2019-01-27T02:03:49.249Z,92.10
2019-01-27T02:06:19.625Z,92.27
2019-01-27T02:08:49.749Z,92.03
2019-01-27T02:11:19.889Z,92.37
2019-01-27T02:13:50.077Z,91.13
2019-01-27T02:16:20.406Z,93.73
2019-01-27T02:18:50.766Z,91.00
2019-01-27T02:21:20.977Z,91.37
2019-01-27T02:23:51.179Z,95.37
2019-01-27T02:26:21.470Z,94.07
2019-01-27T02:28:51.649Z,96.93
2019-01-27T02:31:21.832Z,99.17
2019-01-27T02:33:51.982Z,96.80
2019-01-27T02:36:22.171Z,95.93
2019-01-27T02:38:52.377Z,91.70
2019-01-27T02:41:22.646Z,91.97
2019-01-27T02:43:53.827Z,94.20
2019-01-27T02:46:24.080Z,93.00
2019-01-27T02:48:54.225Z,92.43
2019-01-27T02:51:24.365Z,88.27
2019-01-27T02:53:54.527Z,88.07
2019-01-27T02:56:24.695Z,92.67
2019-01-27T02:58:54.788Z,87.73
2019-01-27T03:01:24.970Z,81.73
2019-01-27T03:03:55.316Z,85.27
2019-01-27T03:06:44.559Z,83.83
2019-01-27T03:09:28.522Z,79.93
2019-01-27T03:11:58.782Z,79.80
2019-01-27T03:14:28.962Z,79.90
2019-01-27T03:16:59.359Z,85.00
2019-01-27T03:19:29.593Z,83.13
2019-01-27T03:21:59.794Z,84.87
2019-01-27T03:24:30.106Z,81.27
2019-01-27T03:27:00.354Z,84.90
2019-01-27T03:29:30.503Z,75.57
2019-01-27T03:32:01.695Z,74.27
2019-01-27T03:34:31.763Z,74.80
2019-01-27T03:37:01.902Z,78.57
2019-01-27T03:39:32.180Z,76.23
2019-01-27T03:42:02.651Z,79.90
2019-01-27T03:44:32.855Z,76.40
2019-01-27T03:47:03.190Z,77.40
2019-01-27T03:49:33.462Z,77.30
2019-01-27T03:52:04.686Z,72.50
2019-01-27T03:54:34.859Z,74.23
2019-01-27T03:57:05.190Z,74.10
2019-01-27T03:59:35.375Z,76.13
2019-01-27T04:02:05.580Z,75.20
2019-01-27T04:04:35.871Z,75.60
2019-01-27T04:07:06.111Z,75.00
2019-01-27T04:09:36.250Z,78.63
2019-01-27T04:12:06.423Z,73.77
2019-01-27T04:14:36.717Z,74.67
2019-01-27T04:17:06.858Z,76.00
2019-01-27T04:19:37.082Z,76.30
2019-01-27T04:22:07.275Z,76.07
2019-01-27T04:24:37.379Z,75.63
2019-01-27T04:27:07.463Z,74.47
2019-01-27T04:29:37.785Z,74.07
2019-01-27T04:32:07.925Z,76.53
2019-01-27T04:34:38.102Z,75.30
2019-01-27T04:37:08.307Z,73.03
2019-01-27T04:39:38.422Z,74.23
2019-01-27T04:42:08.494Z,75.07
2019-01-27T04:44:38.669Z,70.80
2019-01-27T04:47:09.007Z,71.20
2019-01-27T04:49:39.218Z,71.33
2019-01-27T04:52:09.382Z,81.83
2019-01-27T04:54:39.546Z,89.67
2019-01-27T04:57:09.722Z,75.27
2019-01-27T04:59:39.804Z,74.03
2019-01-27T05:02:10.134Z,73.90
2019-01-27T05:04:41.306Z,73.37
2019-01-27T05:07:11.527Z,74.03
2019-01-27T05:09:41.719Z,69.73
2019-01-27T05:12:11.862Z,71.73
2019-01-27T05:14:42.097Z,67.33
2019-01-27T05:17:12.344Z,73.53
2019-01-27T05:19:42.821Z,71.40
2019-01-27T05:22:13.078Z,73.67
2019-01-27T05:24:43.223Z,69.47
2019-01-27T05:27:13.381Z,67.80
2019-01-27T05:29:43.594Z,68.73
2019-01-27T05:32:13.790Z,68.30
2019-01-27T05:34:44.008Z,67.83
2019-01-27T05:37:14.205Z,67.53
2019-01-27T05:39:44.385Z,70.90
2019-01-27T05:42:14.623Z,72.27
2019-01-27T05:44:44.827Z,61.03
2019-01-27T05:47:15.042Z,67.50
2019-01-27T05:49:45.285Z,65.27
2019-01-27T05:52:15.434Z,66.33
2019-01-27T05:54:45.659Z,65.20
2019-01-27T05:57:15.974Z,68.80
2019-01-27T05:59:46.122Z,66.17
2019-01-27T06:02:16.273Z,66.50
2019-01-27T06:04:46.367Z,64.93
2019-01-27T06:07:16.578Z,69.87
2019-01-27T06:09:46.717Z,68.97
2019-01-27T06:12:16.840Z,70.40
2019-01-27T06:14:47.116Z,68.53
2019-01-27T06:17:17.368Z,70.80
2019-01-27T06:19:47.417Z,70.50
2019-01-27T06:22:17.693Z,74.73
2019-01-27T06:24:47.919Z,81.70
2019-01-27T06:27:18.033Z,77.03
2019-01-27T06:29:48.294Z,80.40
2019-01-27T06:32:39.383Z,83.77
2019-01-27T06:35:09.750Z,74.13
2019-01-27T06:37:40.441Z,80.83
2019-01-27T06:40:10.715Z,75.63
2019-01-27T06:42:40.826Z,76.63
2019-01-27T06:45:11.323Z,74.77
2019-01-27T06:47:41.406Z,86.77
2019-01-27T06:50:11.664Z,87.30
2019-01-27T06:52:41.929Z,84.57
2019-01-27T06:55:13.562Z,87.33
2019-01-27T06:57:43.812Z,80.00
2019-01-27T07:00:36.459Z,83.47
2019-01-27T07:03:14.226Z,74.33
2019-01-27T07:05:49.632Z,79.60
2019-01-27T07:08:34.693Z,79.07
2019-01-27T07:11:24.335Z,79.63
2019-01-27T07:14:08.912Z,82.70
2019-01-27T07:16:56.756Z,79.20
2019-01-27T07:19:44.254Z,87.03
2019-01-27T07:22:33.473Z,84.10
2019-01-27T07:25:21.946Z,85.33
2019-01-27T07:28:09.678Z,89.97
2019-01-27T07:31:07.969Z,97.40
2019-01-27T07:34:01.317Z,99.50
2019-01-27T07:36:51.166Z,99.87
2019-01-27T07:39:36.418Z,102.10
2019-01-27T07:42:18.566Z,99.57
2019-01-27T07:45:16.746Z,100.00
2019-01-27T07:48:07.661Z,93.77
2019-01-27T07:50:59.977Z,89.87
2019-01-27T07:53:43.414Z,95.07
2019-01-27T07:56:41.458Z,95.47
2019-01-27T07:59:33.680Z,94.47
2019-01-27T08:02:26.007Z,96.90
2019-01-27T08:05:11.301Z,104.57
2019-01-27T08:08:05.857Z,97.30
2019-01-27T08:10:55.257Z,101.23
2019-01-27T08:13:40.706Z,91.90
2019-01-27T08:16:32.926Z,91.70
2019-01-27T08:19:28.128Z,92.43
2019-01-27T08:22:20.548Z,91.30
2019-01-27T08:25:08.117Z,90.13
2019-01-27T08:27:44.998Z,91.03
2019-01-27T08:30:26.626Z,95.63
2019-01-27T08:33:14.152Z,92.77
2019-01-27T08:36:02.003Z,88.97
2019-01-27T08:38:38.570Z,85.10
2019-01-27T08:41:27.805Z,93.83
2019-01-27T08:44:15.490Z,91.13
2019-01-27T08:46:52.807Z,94.27
2019-01-27T08:49:22.971Z,92.77
2019-01-27T08:51:53.139Z,88.17
2019-01-27T08:54:23.390Z,86.77
2019-01-27T08:56:53.842Z,92.37
2019-01-27T08:59:24.162Z,93.30
2019-01-27T09:02:15.275Z,96.13
2019-01-27T09:04:55.862Z,91.80
2019-01-27T09:07:44.941Z,89.57
2019-01-27T09:10:33.722Z,93.50
2019-01-27T09:13:23.084Z,95.17
2019-01-27T09:16:03.882Z,87.90
2019-01-27T09:18:53.159Z,91.40
2019-01-27T09:21:42.425Z,93.50
2019-01-27T09:24:30.356Z,89.23
2019-01-27T09:27:26.293Z,92.57
2019-01-27T09:30:13.511Z,91.83
2019-01-27T09:32:59.945Z,88.37
2019-01-27T09:35:47.951Z,92.40
2019-01-27T09:38:51.601Z,92.07
2019-01-27T09:41:33.573Z,93.23
2019-01-27T09:44:21.507Z,94.67
2019-01-27T09:47:19.794Z,94.40
2019-01-27T09:50:15.073Z,91.83
2019-01-27T09:53:10.376Z,92.20
2019-01-27T09:55:57.910Z,93.17
2019-01-27T09:58:36.026Z,91.67
2019-01-27T10:01:26.144Z,95.17
2019-01-27T10:04:06.122Z,92.67
2019-01-27T10:06:55.464Z,92.23
2019-01-27T10:09:43.212Z,94.70
2019-01-27T10:12:31.266Z,94.57
2019-01-27T10:15:18.419Z,98.60
2019-01-27T10:18:10.702Z,97.40
2019-01-27T10:20:56.403Z,99.87
2019-01-27T10:23:44.375Z,101.63
2019-01-27T10:26:21.475Z,96.80
2019-01-27T10:29:06.223Z,98.30
2019-01-27T10:31:43.113Z,99.00
2019-01-27T10:34:38.345Z,102.33
2019-01-27T10:37:33.435Z,104.23
2019-01-27T10:40:17.167Z,94.40
2019-01-27T10:43:07.393Z,92.77
2019-01-27T10:45:53.945Z,99.73
2019-01-27T10:48:45.970Z,102.57
2019-01-27T10:51:24.914Z,95.23
2019-01-27T10:54:03.774Z,100.37
2019-01-27T10:57:01.978Z,95.23
2019-01-27T11:00:03.579Z,98.60
2019-01-27T11:02:58.858Z,97.67
2019-01-27T11:05:48.015Z,98.37
2019-01-27T11:08:33.642Z,97.80
2019-01-27T11:11:16.480Z,87.90
2019-01-27T11:14:07.174Z,98.43
2019-01-27T11:16:59.327Z,98.20
2019-01-27T11:19:39.663Z,80.30
2019-01-27T11:22:44.226Z,86.77
2019-01-27T11:25:51.985Z,93.37
2019-01-27T11:28:46.919Z,93.20
2019-01-27T11:31:45.116Z,86.67
2019-01-27T11:34:32.996Z,86.67
2019-01-27T11:37:20.850Z,90.30
2019-01-27T11:40:18.854Z,87.30
2019-01-27T11:42:59.446Z,88.03
2019-01-27T11:45:48.636Z,89.87
2019-01-27T11:48:28.780Z,92.37
2019-01-27T11:51:05.432Z,94.03
2019-01-27T11:53:35.573Z,95.30
2019-01-27T11:56:06.034Z,91.77
2019-01-27T11:58:36.257Z,99.83
2019-01-27T12:01:06.965Z,95.10
2019-01-27T12:03:37.218Z,94.53
2019-01-27T12:06:07.437Z,86.53
2019-01-27T12:08:37.669Z,93.13
2019-01-27T12:11:07.945Z,87.07
2019-01-27T12:13:38.157Z,88.93
2019-01-27T12:16:08.342Z,87.10
2019-01-27T12:18:38.618Z,81.77
2019-01-27T12:21:08.770Z,83.83
2019-01-27T12:23:38.903Z,84.90
2019-01-27T12:26:08.984Z,84.03
2019-01-27T12:28:39.109Z,83.83
2019-01-27T12:31:09.333Z,80.97
2019-01-27T12:33:39.626Z,80.30
2019-01-27T12:36:09.896Z,81.43
2019-01-27T12:38:40.140Z,78.90
2019-01-27T12:41:10.422Z,77.77
2019-01-27T12:43:40.646Z,81.40
2019-01-27T12:46:10.850Z,79.47
2019-01-27T12:48:41.071Z,79.07
2019-01-27T12:51:11.443Z,77.53
2019-01-27T12:53:41.634Z,77.30
2019-01-27T12:56:11.864Z,79.83
2019-01-27T12:58:42.056Z,79.63
2019-01-27T13:01:13.379Z,75.60
2019-01-27T13:03:43.480Z,73.90
2019-01-27T13:06:13.706Z,75.87
2019-01-27T13:08:43.899Z,77.00
2019-01-27T13:11:14.114Z,66.20
2019-01-27T13:13:44.321Z,74.33
2019-01-27T13:16:14.553Z,65.77
2019-01-27T13:18:44.714Z,63.50
2019-01-27T13:21:15.135Z,63.63
2019-01-27T13:23:45.323Z,60.37
2019-01-27T13:26:15.538Z,64.03
2019-01-27T13:28:45.943Z,60.07
2019-01-27T13:31:16.224Z,71.13
2019-01-27T13:33:46.497Z,85.23
2019-01-27T13:36:16.741Z,63.23
2019-01-27T13:38:50.999Z,60.50
2019-01-27T13:41:18.842Z,63.20
2019-01-27T13:43:49.061Z,62.37
2019-01-27T13:46:19.215Z,58.97
2019-01-27T13:48:49.523Z,55.63
2019-01-27T13:51:19.817Z,56.70
2019-01-27T13:53:50.134Z,55.57
2019-01-27T13:56:20.485Z,55.73
2019-01-27T13:58:56.538Z,53.43
2019-01-27T14:01:26.875Z,53.47
2019-01-27T14:03:57.133Z,49.90
2019-01-27T14:06:27.345Z,51.63
2019-01-27T14:08:57.691Z,52.17
2019-01-27T14:11:27.844Z,49.17
2019-01-27T14:13:58.248Z,55.80
2019-01-27T14:16:28.543Z,53.40
2019-01-27T14:18:58.813Z,53.77
2019-01-27T14:21:29.295Z,54.90
2019-01-27T14:23:59.705Z,51.40
2019-01-27T14:26:29.940Z,52.93
2019-01-27T14:29:00.161Z,50.20
2019-01-27T14:31:30.724Z,49.10
2019-01-27T14:34:00.960Z,49.83
2019-01-27T14:36:31.103Z,52.07
2019-01-27T14:39:01.309Z,58.93
2019-01-27T14:41:33.184Z,60.97
2019-01-27T14:44:03.594Z,61.47
2019-01-27T14:46:33.836Z,56.13
2019-01-27T14:49:04.090Z,54.37
2019-01-27T14:51:34.346Z,54.00
2019-01-27T14:54:05.014Z,50.50
2019-01-27T14:56:35.242Z,50.80
2019-01-27T14:59:05.462Z,50.00
2019-01-27T15:01:35.527Z,48.90
2019-01-27T15:04:06.789Z,51.17
2019-01-27T15:06:36.942Z,50.47
2019-01-27T15:09:09.650Z,50.00
2019-01-27T15:11:39.855Z,47.23
2019-01-27T15:14:10.266Z,50.53
2019-01-27T15:16:40.474Z,49.87
2019-01-27T15:19:10.751Z,50.03
2019-01-27T15:21:41.002Z,52.37
2019-01-27T15:24:11.393Z,51.47
2019-01-27T15:26:42.028Z,49.00
2019-01-27T15:29:13.390Z,48.90
2019-01-27T15:31:43.627Z,49.53
2019-01-27T15:34:14.326Z,51.27
2019-01-27T15:36:44.594Z,51.50
2019-01-27T15:39:15.016Z,47.00
2019-01-27T15:41:45.390Z,48.40
2019-01-27T15:44:15.877Z,45.07
2019-01-27T15:46:46.301Z,46.03
2019-01-27T15:49:16.669Z,45.50
2019-01-27T15:51:46.890Z,43.70
2019-01-27T15:54:17.293Z,44.40
2019-01-27T15:56:47.652Z,44.67
2019-01-27T15:59:18.234Z,43.23
2019-01-27T16:01:49.613Z,42.93
2019-01-27T16:04:19.927Z,42.70
2019-01-27T16:06:50.069Z,44.67
2019-01-27T16:09:20.666Z,52.23
2019-01-27T16:11:50.865Z,51.93
2019-01-27T16:14:21.089Z,49.33
2019-01-27T16:16:51.314Z,44.90
2019-01-27T16:19:21.635Z,43.97
2019-01-27T16:21:51.801Z,45.20
2019-01-27T16:24:34.441Z,45.00
2019-01-27T16:27:04.947Z,42.67
2019-01-27T16:29:52.822Z,42.83
2019-01-27T16:32:29.566Z,42.33
2019-01-27T16:35:04.458Z,43.30
2019-01-27T16:37:34.698Z,43.37
2019-01-27T16:40:06.991Z,44.97
2019-01-27T16:42:37.143Z,46.53
2019-01-27T16:45:09.186Z,46.33
2019-01-27T16:47:39.601Z,48.37
2019-01-27T16:50:12.477Z,46.40
2019-01-27T16:52:42.835Z,45.93
2019-01-27T16:55:14.677Z,43.83
2019-01-27T16:57:44.913Z,44.50
2019-01-27T17:00:21.376Z,42.57
2019-01-27T17:02:51.936Z,44.50
2019-01-27T17:05:22.172Z,46.97
2019-01-27T17:07:52.505Z,54.47
2019-01-27T17:10:23.000Z,62.10
2019-01-27T17:12:53.330Z,60.43
2019-01-27T17:15:23.493Z,47.23
2019-01-27T17:17:53.808Z,47.13
2019-01-27T17:20:25.813Z,41.80
2019-01-27T17:22:56.059Z,42.40
2019-01-27T17:25:26.213Z,38.03
2019-01-27T17:27:56.418Z,39.93
2019-01-27T17:30:26.935Z,39.03
2019-01-27T17:32:57.228Z,38.50
2019-01-27T17:35:27.787Z,38.73
2019-01-27T17:37:57.934Z,42.53
2019-01-27T17:40:28.116Z,45.40
2019-01-27T17:42:58.302Z,54.30
2019-01-27T17:45:28.642Z,54.37
2019-01-27T17:47:58.801Z,52.40
2019-01-27T17:50:29.237Z,50.67
2019-01-27T17:52:59.422Z,38.17
2019-01-27T17:55:39.079Z,41.20
2019-01-27T17:58:28.953Z,37.27
2019-01-27T18:01:24.282Z,37.10
2019-01-27T18:04:13.478Z,39.27
2019-01-27T18:07:20.617Z,38.00
2019-01-27T18:10:08.341Z,36.10
2019-01-27T18:12:52.793Z,38.67
2019-01-27T18:15:23.020Z,40.53
2019-01-27T18:17:53.219Z,40.20
2019-01-27T18:20:23.508Z,38.17
2019-01-27T18:22:53.701Z,35.30
2019-01-27T18:25:24.135Z,32.43
2019-01-27T18:27:54.253Z,33.23
2019-01-27T18:30:25.762Z,33.87
2019-01-27T18:32:56.030Z,32.93
2019-01-27T18:35:26.192Z,32.67
2019-01-27T18:37:56.439Z,30.83
2019-01-27T18:40:26.596Z,30.93
2019-01-27T18:42:56.758Z,31.00
2019-01-27T18:45:27.001Z,31.53
2019-01-27T18:47:57.208Z,33.10
2019-01-27T18:50:27.621Z,31.47
2019-01-27T18:53:06.154Z,30.80
2019-01-27T18:55:48.430Z,30.17
2019-01-27T18:58:28.414Z,29.33
2019-01-27T19:01:14.830Z,30.83
2019-01-27T19:03:53.827Z,29.80
2019-01-27T19:06:54.879Z,31.20
2019-01-27T19:09:44.378Z,32.83
2019-01-27T19:12:42.590Z,31.57
2019-01-27T19:15:35.594Z,36.10
2019-01-27T19:18:34.382Z,36.47
2019-01-27T19:21:13.520Z,41.10
2019-01-27T19:24:01.446Z,41.57
2019-01-27T19:26:53.717Z,34.83
2019-01-27T19:29:49.009Z,36.03
2019-01-27T19:32:36.493Z,47.77
2019-01-27T19:35:28.982Z,41.70
2019-01-27T19:38:36.361Z,41.10
2019-01-27T19:41:19.946Z,41.80
2019-01-27T19:44:11.905Z,35.27
2019-01-27T19:46:56.675Z,35.63
2019-01-27T19:49:42.802Z,34.93
2019-01-27T19:52:30.642Z,36.63
2019-01-27T19:55:18.571Z,33.07
2019-01-27T19:58:17.039Z,33.40
2019-01-27T20:01:21.385Z,31.37
2019-01-27T20:04:13.595Z,32.07
2019-01-27T20:07:05.720Z,31.97
2019-01-27T20:09:57.874Z,35.00
2019-01-27T20:12:46.010Z,36.33
2019-01-27T20:15:34.755Z,39.03
2019-01-27T20:18:33.311Z,37.20
2019-01-27T20:21:22.497Z,38.87
2019-01-27T20:24:23.994Z,34.60
2019-01-27T20:27:11.952Z,31.17
2019-01-27T20:29:51.363Z,33.90
2019-01-27T20:32:38.911Z,31.90
2019-01-27T20:35:53.471Z,30.27
2019-01-27T20:38:49.223Z,29.50
2019-01-27T20:42:03.347Z,31.57
2019-01-27T20:44:41.014Z,30.37
2019-01-27T20:47:37.901Z,29.80
2019-01-27T20:50:24.116Z,34.20
2019-01-27T20:53:16.349Z,35.23
2019-01-27T20:56:03.851Z,38.13
2019-01-27T20:58:40.746Z,39.00
2019-01-27T21:01:32.705Z,37.70
2019-01-27T21:04:33.863Z,37.37
2019-01-27T21:07:29.042Z,38.67
2019-01-27T21:10:12.489Z,33.77
2019-01-27T21:13:10.555Z,38.87
2019-01-27T21:15:48.429Z,36.20
2019-01-27T21:18:34.226Z,39.67
2019-01-27T21:21:04.547Z,47.03
2019-01-27T21:23:39.023Z,51.17
2019-01-27T21:26:09.352Z,52.07
2019-01-27T21:28:39.580Z,49.17
2019-01-27T21:31:10.401Z,43.60
2019-01-27T21:33:48.877Z,48.90
2019-01-27T21:36:19.009Z,42.03
2019-01-27T21:38:49.249Z,40.77
2019-01-27T21:41:19.372Z,37.43
2019-01-27T21:43:53.088Z,35.27
2019-01-27T21:46:23.258Z,38.73
2019-01-27T21:48:53.374Z,41.17
2019-01-27T21:51:23.503Z,41.00
2019-01-27T21:53:53.698Z,39.93
2019-01-27T21:56:24.030Z,39.40
2019-01-27T21:58:54.284Z,38.93
2019-01-27T22:01:25.591Z,41.07
2019-01-27T22:03:55.793Z,41.27
2019-01-27T22:06:25.950Z,38.77
2019-01-27T22:08:56.010Z,38.03
2019-01-27T22:11:27.073Z,35.97
2019-01-27T22:13:59.050Z,33.50
2019-01-27T22:16:29.284Z,35.97
2019-01-27T22:18:59.499Z,37.73
2019-01-27T22:21:29.694Z,35.63
2019-01-27T22:23:59.799Z,36.70
2019-01-27T22:26:29.972Z,41.60
2019-01-27T22:29:00.186Z,42.50
2019-01-27T22:31:30.389Z,46.47
2019-01-27T22:34:00.614Z,44.50
2019-01-27T22:36:30.858Z,45.57
2019-01-27T22:39:00.930Z,44.57
2019-01-27T22:41:32.791Z,43.27
2019-01-27T22:44:03.077Z,37.03
2019-01-27T22:46:33.297Z,36.03
2019-01-27T22:49:03.437Z,37.10
2019-01-27T22:51:33.616Z,36.13
2019-01-27T22:54:03.967Z,37.07
2019-01-27T22:56:34.234Z,35.07
2019-01-27T22:59:04.419Z,40.93
2019-01-27T23:01:34.846Z,38.03
2019-01-27T23:04:06.281Z,36.50
2019-01-27T23:06:36.521Z,35.97
2019-01-27T23:09:14.717Z,37.07
2019-01-27T23:11:45.073Z,36.27
2019-01-27T23:14:15.142Z,35.20
2019-01-27T23:16:46.366Z,36.27
2019-01-27T23:19:16.845Z,35.60
2019-01-27T23:21:47.024Z,35.90
2019-01-27T23:24:17.294Z,36.03
2019-01-27T23:26:47.558Z,35.10
2019-01-27T23:29:17.641Z,34.90
2019-01-27T23:31:48.039Z,34.13
2019-01-27T23:34:18.194Z,35.33
2019-01-27T23:36:48.242Z,35.53
2019-01-27T23:39:18.432Z,35.03
2019-01-27T23:41:48.553Z,35.53
2019-01-27T23:44:18.767Z,36.07
2019-01-27T23:46:50.200Z,33.57
2019-01-27T23:49:20.340Z,34.73
2019-01-27T23:51:50.651Z,33.70
2019-01-27T23:54:21.810Z,32.33
2019-01-27T23:56:51.970Z,31.67
2019-01-27T23:59:22.114Z,31.80
